createdAt,value
2018-04-10T00:00:14.054Z,18.9
2018-04-10T00:00:40.199Z,18.83
2018-04-10T00:01:06.356Z,18.83
2018-04-10T00:01:32.497Z,18.84
2018-04-10T00:01:58.646Z,18.88
2018-04-10T00:02:24.790Z,18.88
2018-04-10T00:02:50.927Z,18.84
2018-04-10T00:03:17.087Z,18.9
2018-04-10T00:03:43.228Z,18.89
2018-04-10T00:04:09.365Z,18.88
2018-04-10T00:04:35.508Z,18.89
2018-04-10T00:05:01.667Z,18.93
2018-04-10T00:05:27.807Z,18.93
2018-04-10T00:05:53.950Z,18.9
2018-04-10T00:06:20.088Z,19.04
2018-04-10T00:06:46.252Z,18.99
2018-04-10T00:07:12.422Z,18.98
2018-04-10T00:07:38.568Z,18.95
2018-04-10T00:08:04.734Z,18.99
2018-04-10T00:08:30.872Z,19.04
2018-04-10T00:08:57.068Z,19
2018-04-10T00:09:23.205Z,19.04
2018-04-10T00:09:49.346Z,19
2018-04-10T00:10:15.503Z,18.96
2018-04-10T00:10:41.652Z,19
2018-04-10T00:11:07.793Z,19.07
2018-04-10T00:11:33.938Z,18.93
2018-04-10T00:12:00.071Z,18.93
2018-04-10T00:12:26.212Z,19.04
2018-04-10T00:12:52.379Z,19.04
2018-04-10T00:13:18.534Z,18.96
2018-04-10T00:13:44.696Z,19.02
2018-04-10T00:14:10.841Z,18.89
2018-04-10T00:14:36.985Z,18.88
2018-04-10T00:15:03.127Z,18.92
2018-04-10T00:15:29.299Z,18.95
2018-04-10T00:15:55.439Z,18.92
2018-04-10T00:16:21.605Z,18.89
2018-04-10T00:16:47.746Z,18.92
2018-04-10T00:17:13.894Z,19.02
2018-04-10T00:17:40.030Z,18.99
2018-04-10T00:18:06.175Z,19
2018-04-10T00:18:32.345Z,19.04
2018-04-10T00:18:58.518Z,18.95
2018-04-10T00:19:24.655Z,19.02
2018-04-10T00:19:50.798Z,18.99
2018-04-10T00:20:16.946Z,18.88
2018-04-10T00:20:43.086Z,18.93
2018-04-10T00:21:09.221Z,18.86
2018-04-10T00:21:35.387Z,18.92
2018-04-10T00:22:01.561Z,18.84
2018-04-10T00:22:27.746Z,18.84
2018-04-10T00:22:53.888Z,18.89
2018-04-10T00:23:20.030Z,18.95
2018-04-10T00:23:46.175Z,18.88
2018-04-10T00:24:12.334Z,18.88
2018-04-10T00:24:38.475Z,18.81
2018-04-10T00:25:04.625Z,18.86
2018-04-10T00:25:30.766Z,18.92
2018-04-10T00:25:56.909Z,18.88
2018-04-10T00:26:23.048Z,18.84
2018-04-10T00:26:49.189Z,18.83
2018-04-10T00:27:15.330Z,18.86
2018-04-10T00:27:41.547Z,18.77
2018-04-10T00:28:07.689Z,18.8
2018-04-10T00:28:33.855Z,18.84
2018-04-10T00:28:59.996Z,18.78
2018-04-10T00:29:26.166Z,18.81
2018-04-10T00:29:52.303Z,18.73
2018-04-10T00:30:18.448Z,18.77
2018-04-10T00:30:44.590Z,18.75
2018-04-10T00:31:10.726Z,18.81
2018-04-10T00:31:36.893Z,18.81
2018-04-10T00:32:03.036Z,18.74
2018-04-10T00:32:29.224Z,18.81
2018-04-10T00:32:55.366Z,18.81
2018-04-10T00:33:21.505Z,18.88
2018-04-10T00:33:47.642Z,18.81
2018-04-10T00:34:13.809Z,18.84
2018-04-10T00:34:39.969Z,18.92
2018-04-10T00:35:06.113Z,18.88
2018-04-10T00:35:32.272Z,18.92
2018-04-10T00:35:58.417Z,18.89
2018-04-10T00:36:24.557Z,18.89
2018-04-10T00:36:50.696Z,18.93
2018-04-10T00:37:16.831Z,18.92
2018-04-10T00:37:42.974Z,18.89
2018-04-10T00:38:09.114Z,18.9
2018-04-10T00:38:35.255Z,18.88
2018-04-10T00:39:01.393Z,18.9
2018-04-10T00:39:27.536Z,19.02
2018-04-10T00:39:53.699Z,18.86
2018-04-10T00:40:19.866Z,18.99
2018-04-10T00:40:46.000Z,18.99
2018-04-10T00:41:12.139Z,19.04
2018-04-10T00:41:38.282Z,18.96
2018-04-10T00:42:04.440Z,18.99
2018-04-10T00:42:30.605Z,19
2018-04-10T00:42:56.748Z,18.98
2018-04-10T00:43:22.884Z,18.96
2018-04-10T00:43:49.023Z,18.99
2018-04-10T00:44:15.165Z,19.09
2018-04-10T00:44:41.309Z,18.98
2018-04-10T00:45:07.472Z,19
2018-04-10T00:45:33.619Z,18.98
2018-04-10T00:45:59.753Z,19.07
2018-04-10T00:46:25.895Z,18.98
2018-04-10T00:46:52.031Z,19.04
2018-04-10T00:47:18.172Z,19.07
2018-04-10T00:47:44.315Z,19.08
2018-04-10T00:48:10.450Z,19.02
2018-04-10T00:48:36.589Z,19
2018-04-10T00:49:02.733Z,19.04
2018-04-10T00:49:28.874Z,18.95
2018-04-10T00:49:55.013Z,19.02
2018-04-10T00:50:21.159Z,19.02
2018-04-10T00:50:47.325Z,19.04
2018-04-10T00:51:13.479Z,19.08
2018-04-10T00:51:39.615Z,19.07
2018-04-10T00:52:05.755Z,19.07
2018-04-10T00:52:31.893Z,19.07
2018-04-10T00:52:58.038Z,19.12
2018-04-10T00:53:24.178Z,19.12
2018-04-10T00:53:50.318Z,19.11
2018-04-10T00:54:16.463Z,19.11
2018-04-10T00:54:42.599Z,19.14
2018-04-10T00:55:08.771Z,19.14
2018-04-10T00:55:34.909Z,19.16
2018-04-10T00:56:01.044Z,19.16
2018-04-10T00:56:27.182Z,19.18
2018-04-10T00:56:53.327Z,19.18
2018-04-10T00:57:19.466Z,19.26
2018-04-10T00:57:45.606Z,19.16
2018-04-10T00:58:11.746Z,19.26
2018-04-10T00:58:37.887Z,19.14
2018-04-10T00:59:04.029Z,19.21
2018-04-10T00:59:30.168Z,19.22
2018-04-10T00:59:56.336Z,19.26
2018-04-10T01:00:22.505Z,19.16
2018-04-10T01:00:48.650Z,19.22
2018-04-10T01:01:14.783Z,19.22
2018-04-10T01:01:40.931Z,19.18
2018-04-10T01:02:07.066Z,19.16
2018-04-10T01:02:33.205Z,19.11
2018-04-10T01:02:59.370Z,19.09
2018-04-10T01:03:25.515Z,19.08
2018-04-10T01:03:51.671Z,19.07
2018-04-10T01:04:17.844Z,19.08
2018-04-10T01:04:43.984Z,19.07
2018-04-10T01:05:10.123Z,19.11
2018-04-10T01:05:36.267Z,19.04
2018-04-10T01:06:02.425Z,19.11
2018-04-10T01:06:28.567Z,19.11
2018-04-10T01:06:54.700Z,19.08
2018-04-10T01:07:20.845Z,19.07
2018-04-10T01:07:46.979Z,19.09
2018-04-10T01:08:13.124Z,19.09
2018-04-10T01:08:39.279Z,19.18
2018-04-10T01:09:05.407Z,19.22
2018-04-10T01:09:31.547Z,19.08
2018-04-10T01:09:57.692Z,19.15
2018-04-10T01:10:23.834Z,19.16
2018-04-10T01:10:49.996Z,19.24
2018-04-10T01:11:16.142Z,19.18
2018-04-10T01:11:42.279Z,19.24
2018-04-10T01:12:08.424Z,19.16
2018-04-10T01:12:34.578Z,19.19
2018-04-10T01:13:00.740Z,19.11
2018-04-10T01:13:26.876Z,19.16
2018-04-10T01:13:53.018Z,19.24
2018-04-10T01:14:19.158Z,19.18
2018-04-10T01:14:45.301Z,19.16
2018-04-10T01:15:11.441Z,19.24
2018-04-10T01:15:37.604Z,19.18
2018-04-10T01:16:03.780Z,19.18
2018-04-10T01:16:29.922Z,19.22
2018-04-10T01:16:56.059Z,19.22
2018-04-10T01:17:22.199Z,19.07
2018-04-10T01:17:48.334Z,19.21
2018-04-10T01:18:14.476Z,19.21
2018-04-10T01:18:40.615Z,19.14
2018-04-10T01:19:06.756Z,19.09
2018-04-10T01:19:32.897Z,19.07
2018-04-10T01:19:59.035Z,19.14
2018-04-10T01:20:25.175Z,19.12
2018-04-10T01:20:51.314Z,19.11
2018-04-10T01:21:17.483Z,19.09
2018-04-10T01:21:43.624Z,19.09
2018-04-10T01:22:09.787Z,19.09
2018-04-10T01:22:35.932Z,19.09
2018-04-10T01:23:02.093Z,19.08
2018-04-10T01:23:28.262Z,19.04
2018-04-10T01:23:54.397Z,19.11
2018-04-10T01:24:20.540Z,18.96
2018-04-10T01:24:46.681Z,19.07
2018-04-10T01:25:12.818Z,19.08
2018-04-10T01:25:38.961Z,18.99
2018-04-10T01:26:05.101Z,19.02
2018-04-10T01:26:31.239Z,18.96
2018-04-10T01:26:57.408Z,18.95
2018-04-10T01:27:23.564Z,19
2018-04-10T01:27:49.701Z,19.08
2018-04-10T01:28:15.845Z,19.08
2018-04-10T01:28:41.983Z,18.96
2018-04-10T01:29:08.131Z,18.99
2018-04-10T01:29:34.268Z,19.02
2018-04-10T01:30:00.418Z,18.98
2018-04-10T01:30:26.558Z,18.95
2018-04-10T01:30:52.701Z,18.92
2018-04-10T01:31:18.840Z,18.89
2018-04-10T01:31:44.980Z,18.86
2018-04-10T01:32:11.120Z,18.77
2018-04-10T01:32:37.258Z,18.86
2018-04-10T01:33:03.395Z,18.81
2018-04-10T01:33:29.531Z,18.88
2018-04-10T01:33:55.675Z,18.88
2018-04-10T01:34:21.838Z,18.86
2018-04-10T01:34:47.985Z,18.75
2018-04-10T01:35:14.127Z,18.84
2018-04-10T01:35:40.280Z,18.7
2018-04-10T01:36:06.409Z,18.74
2018-04-10T01:36:32.546Z,18.68
2018-04-10T01:36:58.712Z,18.52
2018-04-10T01:37:24.856Z,18.6
2018-04-10T01:37:50.989Z,18.68
2018-04-10T01:38:17.150Z,18.62
2018-04-10T01:38:43.290Z,18.5
2018-04-10T01:39:09.429Z,18.53
2018-04-10T01:39:35.576Z,18.58
2018-04-10T01:40:01.737Z,18.53
2018-04-10T01:40:27.899Z,18.41
2018-04-10T01:40:54.034Z,18.45
2018-04-10T01:41:20.170Z,18.49
2018-04-10T01:41:46.305Z,18.37
2018-04-10T01:42:12.453Z,18.43
2018-04-10T01:42:38.587Z,18.47
2018-04-10T01:43:04.729Z,18.49
2018-04-10T01:43:30.878Z,18.4
2018-04-10T01:43:57.019Z,18.37
2018-04-10T01:44:23.160Z,18.4
2018-04-10T01:44:49.299Z,18.43
2018-04-10T01:45:15.482Z,18.44
2018-04-10T01:45:41.577Z,18.4
2018-04-10T01:46:07.724Z,18.41
2018-04-10T01:46:33.856Z,18.38
2018-04-10T01:46:59.996Z,18.41
2018-04-10T01:47:26.138Z,18.35
2018-04-10T01:47:52.283Z,18.34
2018-04-10T01:48:18.417Z,18.34
2018-04-10T01:48:44.558Z,18.37
2018-04-10T01:49:10.697Z,18.29
2018-04-10T01:49:36.854Z,18.29
2018-04-10T01:50:02.997Z,18.28
2018-04-10T01:50:29.134Z,18.28
2018-04-10T01:50:55.269Z,18.28
2018-04-10T01:51:21.406Z,18.26
2018-04-10T01:51:47.554Z,18.26
2018-04-10T01:52:13.701Z,18.28
2018-04-10T01:52:39.862Z,18.31
2018-04-10T01:53:05.999Z,18.26
2018-04-10T01:53:32.137Z,18.25
2018-04-10T01:53:58.288Z,18.29
2018-04-10T01:54:24.417Z,18.23
2018-04-10T01:54:50.560Z,18.22
2018-04-10T01:55:16.693Z,18.26
2018-04-10T01:55:42.836Z,18.28
2018-04-10T01:56:08.971Z,18.28
2018-04-10T01:56:35.122Z,18.23
2018-04-10T01:57:01.261Z,18.28
2018-04-10T01:57:27.393Z,18.25
2018-04-10T01:57:53.558Z,18.26
2018-04-10T01:58:19.709Z,18.26
2018-04-10T01:58:45.876Z,18.28
2018-04-10T01:59:12.014Z,18.26
2018-04-10T01:59:38.154Z,18.23
2018-04-10T02:00:04.297Z,18.35
2018-04-10T02:00:30.464Z,18.37
2018-04-10T02:00:56.599Z,18.34
2018-04-10T02:01:22.760Z,18.37
2018-04-10T02:01:48.903Z,18.33
2018-04-10T02:02:15.044Z,18.34
2018-04-10T02:02:41.181Z,18.31
2018-04-10T02:03:07.322Z,18.34
2018-04-10T02:03:33.485Z,18.41
2018-04-10T02:03:59.635Z,18.35
2018-04-10T02:04:25.773Z,18.31
2018-04-10T02:04:51.904Z,18.31
2018-04-10T02:05:18.041Z,18.34
2018-04-10T02:05:44.186Z,18.4
2018-04-10T02:06:10.329Z,18.43
2018-04-10T02:06:36.470Z,18.41
2018-04-10T02:07:02.613Z,18.41
2018-04-10T02:07:28.750Z,18.44
2018-04-10T02:07:54.896Z,18.45
2018-04-10T02:08:21.056Z,18.47
2018-04-10T02:08:47.192Z,18.4
2018-04-10T02:09:13.333Z,18.43
2018-04-10T02:09:39.473Z,18.52
2018-04-10T02:15:46.978Z,18.62
2018-04-10T02:16:13.122Z,18.6
2018-04-10T02:16:39.260Z,18.63
2018-04-10T02:17:05.408Z,18.68
2018-04-10T02:17:31.550Z,18.62
2018-04-10T02:17:57.682Z,18.62
2018-04-10T02:18:23.854Z,18.62
2018-04-10T02:18:50.003Z,18.53
2018-04-10T02:19:16.138Z,18.58
2018-04-10T02:19:42.271Z,18.6
2018-04-10T02:20:08.419Z,18.6
2018-04-10T02:20:34.578Z,18.59
2018-04-10T02:21:00.726Z,18.65
2018-04-10T02:21:26.861Z,18.65
2018-04-10T02:21:53.011Z,18.66
2018-04-10T02:22:19.151Z,18.7
2018-04-10T02:22:45.321Z,18.6
2018-04-10T02:23:11.454Z,18.62
2018-04-10T02:23:37.616Z,18.59
2018-04-10T02:24:03.753Z,18.63
2018-04-10T02:24:29.897Z,18.65
2018-04-10T02:24:56.037Z,18.66
2018-04-10T02:25:22.180Z,18.62
2018-04-10T02:25:48.322Z,18.71
2018-04-10T02:26:14.463Z,18.58
2018-04-10T02:26:40.610Z,18.58
2018-04-10T02:27:06.766Z,18.62
2018-04-10T02:27:32.929Z,18.62
2018-04-10T02:27:59.067Z,18.62
2018-04-10T02:28:25.210Z,18.62
2018-04-10T02:28:51.350Z,18.65
2018-04-10T02:29:17.494Z,18.6
2018-04-10T02:29:43.637Z,18.59
2018-04-10T02:30:09.794Z,18.53
2018-04-10T02:30:35.935Z,18.58
2018-04-10T02:31:02.099Z,18.5
2018-04-10T02:31:28.238Z,18.55
2018-04-10T02:31:54.368Z,18.53
2018-04-10T02:32:20.536Z,18.59
2018-04-10T02:32:46.676Z,18.52
2018-04-10T02:33:12.818Z,18.6
2018-04-10T02:33:38.974Z,18.6
2018-04-10T02:34:05.146Z,18.52
2018-04-10T02:34:31.285Z,18.58
2018-04-10T02:34:57.424Z,18.62
2018-04-10T02:35:23.585Z,18.5
2018-04-10T02:35:49.728Z,18.5
2018-04-10T02:36:15.886Z,18.52
2018-04-10T02:36:42.028Z,18.62
2018-04-10T02:37:08.195Z,18.62
2018-04-10T02:37:34.334Z,18.62
2018-04-10T02:38:00.479Z,18.59
2018-04-10T02:38:26.618Z,18.6
2018-04-10T02:38:52.779Z,18.52
2018-04-10T02:39:18.920Z,18.6
2018-04-10T02:39:45.065Z,18.52
2018-04-10T02:40:11.201Z,18.5
2018-04-10T02:40:37.347Z,18.56
2018-04-10T02:41:03.480Z,18.6
2018-04-10T02:41:29.621Z,18.6
2018-04-10T02:41:55.787Z,18.59
2018-04-10T02:42:21.954Z,18.59
2018-04-10T02:42:48.094Z,18.56
2018-04-10T02:43:14.228Z,18.52
2018-04-10T02:43:40.384Z,18.55
2018-04-10T02:44:06.562Z,18.53
2018-04-10T02:44:32.726Z,18.49
2018-04-10T02:44:58.866Z,18.55
2018-04-10T02:45:25.005Z,18.55
2018-04-10T02:45:51.170Z,18.56
2018-04-10T02:46:17.359Z,18.47
2018-04-10T02:46:43.494Z,18.52
2018-04-10T02:47:09.637Z,18.53
2018-04-10T02:47:35.774Z,18.47
2018-04-10T02:48:01.920Z,18.52
2018-04-10T02:48:28.084Z,18.47
2018-04-10T02:48:54.243Z,18.5
2018-04-10T02:49:20.386Z,18.45
2018-04-10T02:49:46.553Z,18.4
2018-04-10T02:50:12.719Z,18.41
2018-04-10T02:50:38.854Z,18.43
2018-04-10T02:51:04.996Z,18.43
2018-04-10T02:51:31.152Z,18.4
2018-04-10T02:51:57.320Z,18.28
2018-04-10T02:52:23.454Z,18.45
2018-04-10T02:52:49.593Z,18.43
2018-04-10T02:53:15.734Z,18.33
2018-04-10T02:53:41.871Z,18.4
2018-04-10T02:54:08.010Z,18.31
2018-04-10T02:54:34.152Z,18.34
2018-04-10T02:55:00.294Z,18.38
2018-04-10T02:55:26.434Z,18.4
2018-04-10T02:55:52.599Z,18.33
2018-04-10T02:56:18.736Z,18.37
2018-04-10T02:56:44.873Z,18.31
2018-04-10T02:57:11.039Z,18.35
2018-04-10T02:57:37.175Z,18.37
2018-04-10T02:58:03.314Z,18.37
2018-04-10T02:58:29.459Z,18.34
2018-04-10T02:58:55.646Z,18.37
2018-04-10T02:59:21.785Z,18.28
2018-04-10T02:59:47.973Z,18.28
2018-04-10T03:00:14.107Z,18.38
2018-04-10T03:00:40.249Z,18.26
2018-04-10T03:01:06.385Z,18.29
2018-04-10T03:01:32.531Z,18.4
2018-04-10T03:01:58.697Z,18.33
2018-04-10T03:02:24.837Z,18.41
2018-04-10T03:02:50.981Z,18.37
2018-04-10T03:03:17.166Z,18.35
2018-04-10T03:03:43.279Z,18.4
2018-04-10T03:04:09.417Z,18.33
2018-04-10T03:04:35.562Z,18.37
2018-04-10T03:05:01.720Z,18.29
2018-04-10T03:05:27.867Z,18.34
2018-04-10T03:05:54.003Z,18.35
2018-04-10T03:06:20.148Z,18.34
2018-04-10T03:06:46.318Z,18.4
2018-04-10T03:07:12.462Z,18.35
2018-04-10T03:07:38.601Z,18.33
2018-04-10T03:08:04.764Z,18.23
2018-04-10T03:08:30.899Z,18.28
2018-04-10T03:08:57.040Z,18.33
2018-04-10T03:09:23.177Z,18.26
2018-04-10T03:09:49.348Z,18.22
2018-04-10T03:10:15.490Z,18.25
2018-04-10T03:10:41.626Z,18.15
2018-04-10T03:11:07.775Z,18.13
2018-04-10T03:11:33.912Z,18.15
2018-04-10T03:12:00.050Z,18.16
2018-04-10T03:12:26.213Z,18.15
2018-04-10T03:12:52.355Z,18.16
2018-04-10T03:13:18.492Z,18.15
2018-04-10T03:13:44.651Z,18.13
2018-04-10T03:14:10.832Z,18.1
2018-04-10T03:14:36.960Z,18.11
2018-04-10T03:15:03.103Z,18.16
2018-04-10T03:15:29.233Z,18.2
2018-04-10T03:15:55.376Z,18.1
2018-04-10T03:16:21.518Z,18.1
2018-04-10T03:16:47.676Z,18.13
2018-04-10T03:17:13.820Z,18.1
2018-04-10T03:17:39.960Z,18.2
2018-04-10T03:18:06.095Z,18.22
2018-04-10T03:18:32.258Z,18.15
2018-04-10T03:18:58.406Z,18.23
2018-04-10T03:19:24.543Z,18.15
2018-04-10T03:19:50.682Z,18.19
2018-04-10T03:20:16.847Z,18.13
2018-04-10T03:20:43.020Z,18.18
2018-04-10T03:21:09.168Z,18.22
2018-04-10T03:21:35.311Z,18.15
2018-04-10T03:22:01.443Z,18.15
2018-04-10T03:22:27.583Z,18.13
2018-04-10T03:22:53.719Z,18.11
2018-04-10T03:23:19.852Z,18.11
2018-04-10T03:23:45.998Z,18.1
2018-04-10T03:24:12.164Z,18.11
2018-04-10T03:24:38.331Z,18.11
2018-04-10T03:25:04.471Z,18.15
2018-04-10T03:25:30.616Z,18.15
2018-04-10T03:25:56.755Z,18.07
2018-04-10T03:26:22.890Z,18.04
2018-04-10T03:26:49.060Z,18.05
2018-04-10T03:27:15.227Z,18.07
2018-04-10T03:27:41.365Z,18.03
2018-04-10T03:28:07.501Z,17.97
2018-04-10T03:28:33.639Z,18.05
2018-04-10T03:28:59.785Z,17.98
2018-04-10T03:29:25.923Z,17.92
2018-04-10T03:29:52.084Z,17.95
2018-04-10T03:30:18.221Z,17.95
2018-04-10T03:30:44.387Z,17.9
2018-04-10T03:31:10.533Z,17.89
2018-04-10T03:31:36.670Z,17.92
2018-04-10T03:32:02.812Z,17.89
2018-04-10T03:32:28.951Z,17.87
2018-04-10T03:32:55.094Z,17.87
2018-04-10T03:33:21.235Z,17.86
2018-04-10T03:33:47.375Z,17.85
2018-04-10T03:34:13.539Z,17.74
2018-04-10T03:34:39.670Z,17.8
2018-04-10T03:35:05.814Z,17.74
2018-04-10T03:35:31.973Z,17.78
2018-04-10T03:35:58.141Z,17.79
2018-04-10T03:36:24.275Z,17.82
2018-04-10T03:36:50.414Z,17.74
2018-04-10T03:37:16.556Z,17.76
2018-04-10T03:37:42.700Z,17.82
2018-04-10T03:38:08.833Z,17.8
2018-04-10T03:38:34.974Z,17.85
2018-04-10T03:39:01.114Z,17.83
2018-04-10T03:39:27.257Z,17.79
2018-04-10T03:39:53.394Z,17.76
2018-04-10T03:40:19.540Z,17.79
2018-04-10T03:40:45.675Z,17.79
2018-04-10T03:41:11.819Z,17.78
2018-04-10T03:41:37.963Z,17.79
2018-04-10T03:42:04.090Z,17.78
2018-04-10T03:42:30.243Z,17.72
2018-04-10T03:42:56.368Z,17.64
2018-04-10T03:43:22.533Z,17.6
2018-04-10T03:43:48.673Z,17.65
2018-04-10T03:44:14.842Z,17.65
2018-04-10T03:44:40.998Z,17.57
2018-04-10T03:45:07.146Z,17.57
2018-04-10T03:45:33.285Z,17.65
2018-04-10T03:45:59.469Z,17.64
2018-04-10T03:46:25.610Z,17.68
2018-04-10T03:46:51.778Z,17.67
2018-04-10T03:47:17.942Z,17.65
2018-04-10T03:47:44.079Z,17.6
2018-04-10T03:48:10.220Z,17.65
2018-04-10T03:48:36.359Z,17.67
2018-04-10T03:49:02.495Z,17.64
2018-04-10T03:49:28.641Z,17.72
2018-04-10T03:49:54.774Z,17.59
2018-04-10T03:50:20.920Z,17.72
2018-04-10T03:50:47.066Z,17.7
2018-04-10T03:51:13.226Z,17.65
2018-04-10T03:51:39.364Z,17.67
2018-04-10T03:52:05.500Z,17.67
2018-04-10T03:52:31.643Z,17.72
2018-04-10T03:52:57.788Z,17.8
2018-04-10T03:53:23.971Z,17.71
2018-04-10T03:53:50.112Z,17.68
2018-04-10T03:54:16.249Z,17.72
2018-04-10T03:54:42.386Z,17.76
2018-04-10T03:55:08.521Z,17.74
2018-04-10T03:55:34.668Z,17.78
2018-04-10T03:56:00.822Z,17.79
2018-04-10T03:56:26.965Z,17.8
2018-04-10T03:56:53.104Z,17.8
2018-04-10T03:57:19.240Z,17.79
2018-04-10T03:57:45.381Z,17.78
2018-04-10T03:58:11.543Z,17.79
2018-04-10T03:58:37.692Z,17.76
2018-04-10T03:59:03.833Z,17.74
2018-04-10T03:59:29.971Z,17.7
2018-04-10T03:59:56.117Z,17.79
2018-04-10T04:00:22.257Z,17.76
2018-04-10T04:00:48.395Z,17.82
2018-04-10T04:01:14.538Z,17.79
2018-04-10T04:01:40.670Z,17.8
2018-04-10T04:02:06.810Z,17.71
2018-04-10T04:02:32.944Z,17.72
2018-04-10T04:02:59.085Z,17.64
2018-04-10T04:03:25.224Z,17.6
2018-04-10T04:03:51.364Z,17.67
2018-04-10T04:04:17.504Z,17.64
2018-04-10T04:04:43.641Z,17.59
2018-04-10T04:05:09.806Z,17.57
2018-04-10T04:05:35.941Z,17.6
2018-04-10T04:06:02.100Z,17.6
2018-04-10T04:06:28.263Z,17.59
2018-04-10T04:06:54.422Z,17.56
2018-04-10T04:07:20.592Z,17.68
2018-04-10T04:07:46.738Z,17.68
2018-04-10T04:08:12.872Z,17.64
2018-04-10T04:08:39.014Z,17.49
2018-04-10T04:09:05.150Z,17.49
2018-04-10T04:09:31.316Z,17.48
2018-04-10T04:09:57.455Z,17.49
2018-04-10T04:10:23.596Z,17.48
2018-04-10T04:10:49.756Z,17.46
2018-04-10T04:11:15.899Z,17.48
2018-04-10T04:11:42.037Z,17.44
2018-04-10T04:12:08.199Z,17.46
2018-04-10T04:12:34.340Z,17.49
2018-04-10T04:13:00.506Z,17.42
2018-04-10T04:13:26.643Z,17.41
2018-04-10T04:13:52.785Z,17.34
2018-04-10T04:14:18.922Z,17.27
2018-04-10T04:14:45.061Z,17.26
2018-04-10T04:15:11.206Z,17.2
2018-04-10T04:15:37.344Z,17.2
2018-04-10T04:16:03.544Z,17.23
2018-04-10T04:16:29.629Z,17.14
2018-04-10T04:16:55.771Z,17.12
2018-04-10T04:17:21.933Z,16.99
2018-04-10T04:17:48.075Z,17.02
2018-04-10T04:18:14.219Z,16.99
2018-04-10T04:18:40.353Z,16.91
2018-04-10T04:19:06.519Z,16.79
2018-04-10T04:19:32.634Z,16.79
2018-04-10T04:19:58.773Z,16.75
2018-04-10T04:20:24.911Z,16.75
2018-04-10T04:20:51.056Z,16.78
2018-04-10T04:21:17.245Z,16.74
2018-04-10T04:21:43.387Z,16.69
2018-04-10T04:22:09.522Z,16.74
2018-04-10T04:22:35.659Z,16.83
2018-04-10T04:23:01.795Z,16.81
2018-04-10T04:23:27.936Z,16.84
2018-04-10T04:23:54.075Z,16.78
2018-04-10T04:24:20.220Z,16.81
2018-04-10T04:24:46.379Z,16.9
2018-04-10T04:25:12.522Z,16.91
2018-04-10T04:25:38.664Z,16.96
2018-04-10T04:26:04.850Z,17.01
2018-04-10T04:26:30.942Z,17.02
2018-04-10T04:26:57.079Z,16.94
2018-04-10T04:27:23.221Z,16.99
2018-04-10T04:27:49.366Z,16.99
2018-04-10T04:28:15.499Z,17.11
2018-04-10T04:28:41.642Z,17.08
2018-04-10T04:29:07.784Z,17.09
2018-04-10T04:29:33.924Z,17.16
2018-04-10T04:30:00.096Z,17.2
2018-04-10T04:30:26.205Z,17.23
2018-04-10T04:30:52.359Z,17.22
2018-04-10T04:31:18.484Z,17.16
2018-04-10T04:31:44.621Z,17.24
2018-04-10T04:32:10.765Z,17.23
2018-04-10T04:32:36.924Z,17.24
2018-04-10T04:33:03.062Z,17.19
2018-04-10T04:33:29.206Z,17.26
2018-04-10T04:33:55.339Z,17.16
2018-04-10T04:34:21.478Z,17.16
2018-04-10T04:34:47.623Z,17.22
2018-04-10T04:35:13.760Z,17.26
2018-04-10T04:35:39.902Z,17.24
2018-04-10T04:36:06.065Z,17.23
2018-04-10T04:36:32.201Z,17.24
2018-04-10T04:36:58.346Z,17.26
2018-04-10T04:37:24.491Z,17.24
2018-04-10T04:37:50.650Z,17.24
2018-04-10T04:38:16.817Z,17.24
2018-04-10T04:38:42.953Z,17.27
2018-04-10T04:39:09.118Z,17.26
2018-04-10T04:39:35.253Z,17.24
2018-04-10T04:40:01.396Z,17.29
2018-04-10T04:40:27.530Z,17.29
2018-04-10T04:40:53.676Z,17.24
2018-04-10T04:41:19.818Z,17.26
2018-04-10T04:41:45.959Z,17.3
2018-04-10T04:42:12.095Z,17.26
2018-04-10T04:42:38.239Z,17.31
2018-04-10T04:43:04.381Z,17.27
2018-04-10T04:43:30.548Z,17.33
2018-04-10T04:43:56.684Z,17.24
2018-04-10T04:44:22.829Z,17.2
2018-04-10T04:44:48.968Z,17.22
2018-04-10T04:45:15.133Z,17.14
2018-04-10T04:45:41.279Z,17.15
2018-04-10T04:46:07.439Z,17.12
2018-04-10T04:46:33.580Z,17.12
2018-04-10T04:46:59.741Z,17.16
2018-04-10T04:47:25.883Z,17.11
2018-04-10T04:47:52.020Z,17.12
2018-04-10T04:48:18.159Z,17.12
2018-04-10T04:48:44.295Z,17.19
2018-04-10T04:49:10.441Z,17.19
2018-04-10T04:49:36.600Z,17.11
2018-04-10T04:50:02.739Z,17.12
2018-04-10T04:50:28.876Z,17.14
2018-04-10T04:50:55.017Z,17.09
2018-04-10T04:51:21.160Z,17.11
2018-04-10T04:51:47.299Z,17.12
2018-04-10T04:52:13.437Z,17.09
2018-04-10T04:52:39.577Z,17.05
2018-04-10T04:53:05.717Z,17.02
2018-04-10T04:53:31.859Z,16.83
2018-04-10T04:53:57.999Z,16.87
2018-04-10T04:54:24.138Z,16.86
2018-04-10T04:54:50.278Z,16.86
2018-04-10T04:55:16.419Z,16.89
2018-04-10T04:55:42.555Z,16.83
2018-04-10T04:56:08.703Z,17.04
2018-04-10T04:56:34.838Z,16.97
2018-04-10T04:57:00.982Z,16.99
2018-04-10T04:57:27.118Z,16.94
2018-04-10T04:57:53.268Z,17.01
2018-04-10T04:58:19.410Z,16.9
2018-04-10T04:58:45.545Z,17.01
2018-04-10T04:59:11.687Z,17.02
2018-04-10T04:59:37.840Z,17.06
2018-04-10T05:00:03.987Z,17.09
2018-04-10T05:00:30.151Z,17.14
2018-04-10T05:00:56.318Z,17.16
2018-04-10T05:01:22.457Z,17.2
2018-04-10T05:01:48.594Z,17.19
2018-04-10T05:02:14.735Z,17.19
2018-04-10T05:02:40.919Z,17.24
2018-04-10T05:03:07.063Z,17.19
2018-04-10T05:03:33.203Z,17.2
2018-04-10T05:03:59.344Z,17.2
2018-04-10T05:04:25.512Z,17.19
2018-04-10T05:04:51.626Z,17.2
2018-04-10T05:05:17.781Z,17.23
2018-04-10T05:05:43.925Z,17.26
2018-04-10T05:06:10.063Z,17.3
2018-04-10T05:06:36.227Z,17.24
2018-04-10T05:07:02.392Z,17.27
2018-04-10T05:07:28.558Z,17.34
2018-04-10T05:07:54.702Z,17.36
2018-04-10T05:08:20.861Z,17.33
2018-04-10T05:08:46.977Z,17.36
2018-04-10T05:09:13.114Z,17.38
2018-04-10T05:09:39.259Z,17.33
2018-04-10T05:10:05.396Z,17.33
2018-04-10T05:10:31.587Z,17.26
2018-04-10T05:10:57.709Z,17.24
2018-04-10T05:11:23.877Z,17.26
2018-04-10T05:11:50.018Z,17.27
2018-04-10T05:12:16.159Z,17.27
2018-04-10T05:12:42.325Z,17.26
2018-04-10T05:13:08.473Z,17.31
2018-04-10T05:13:34.616Z,17.26
2018-04-10T05:14:00.762Z,17.2
2018-04-10T05:14:26.894Z,17.22
2018-04-10T05:14:53.031Z,17.16
2018-04-10T05:15:19.173Z,17.06
2018-04-10T05:15:45.316Z,17.06
2018-04-10T05:16:11.481Z,16.97
2018-04-10T05:16:37.624Z,17.05
2018-04-10T05:17:03.765Z,17.04
2018-04-10T05:17:29.903Z,16.96
2018-04-10T05:17:56.043Z,16.91
2018-04-10T05:18:22.179Z,16.87
2018-04-10T05:18:48.320Z,16.86
2018-04-10T05:19:14.480Z,16.76
2018-04-10T05:19:40.620Z,16.79
2018-04-10T05:20:06.790Z,16.74
2018-04-10T05:20:32.927Z,16.69
2018-04-10T05:20:59.076Z,16.74
2018-04-10T05:21:25.234Z,16.71
2018-04-10T05:21:51.371Z,16.64
2018-04-10T05:22:17.511Z,16.58
2018-04-10T05:22:43.682Z,16.69
2018-04-10T05:23:09.830Z,16.72
2018-04-10T05:23:35.967Z,16.75
2018-04-10T05:24:02.110Z,16.69
2018-04-10T05:24:28.282Z,16.69
2018-04-10T05:24:54.427Z,16.61
2018-04-10T05:25:20.562Z,16.56
2018-04-10T05:25:46.692Z,16.57
2018-04-10T05:26:12.829Z,16.69
2018-04-10T05:26:38.969Z,16.71
2018-04-10T05:27:05.109Z,16.71
2018-04-10T05:27:31.268Z,16.66
2018-04-10T05:27:57.410Z,16.68
2018-04-10T05:28:23.542Z,16.71
2018-04-10T05:28:49.678Z,16.79
2018-04-10T05:29:15.820Z,16.76
2018-04-10T05:29:41.962Z,16.84
2018-04-10T05:30:08.103Z,16.87
2018-04-10T05:30:34.239Z,16.9
2018-04-10T05:31:00.382Z,16.93
2018-04-10T05:31:26.522Z,16.9
2018-04-10T05:31:52.655Z,16.97
2018-04-10T05:32:18.799Z,17.05
2018-04-10T05:32:44.956Z,17.02
2018-04-10T05:33:11.111Z,17.05
2018-04-10T05:33:37.254Z,17.11
2018-04-10T05:34:03.389Z,16.97
2018-04-10T05:34:29.556Z,16.99
2018-04-10T05:34:55.696Z,16.86
2018-04-10T05:35:21.841Z,16.91
2018-04-10T05:35:48.009Z,16.9
2018-04-10T05:36:14.191Z,16.83
2018-04-10T05:36:40.344Z,16.9
2018-04-10T05:37:06.492Z,16.84
2018-04-10T05:37:32.629Z,16.94
2018-04-10T05:37:58.778Z,16.93
2018-04-10T05:38:24.921Z,17.06
2018-04-10T05:38:51.090Z,17.15
2018-04-10T05:39:17.226Z,17.2
2018-04-10T05:39:43.368Z,17.24
2018-04-10T05:40:09.538Z,17.2
2018-04-10T05:40:35.678Z,17.22
2018-04-10T05:41:01.821Z,17.23
2018-04-10T05:41:27.961Z,17.11
2018-04-10T05:41:54.100Z,17.16
2018-04-10T05:42:20.246Z,17.12
2018-04-10T05:42:46.382Z,17.12
2018-04-10T05:43:12.522Z,17.05
2018-04-10T05:43:38.665Z,17.09